Time;durP1;ratioP1;P1;durP2;ratioP2;P2;SDS_P1;SDS_P2;PMS_P1;PMS_P2;Temp;Humidity;BMP_temperature;BMP_pressure;BME280_temperature;BME280_humidity;BME280_pressure;Samples;Min_cycle;Max_cycle;Signal;HPM_P1;HPM_P2
2023/06/05 00:00:18;;;;;;;8.35;2.63;;;;;;;;;;5044820;28;21037;-65
2023/06/05 00:02:44;;;;;;;5.75;3.03;;;;;;;;;;5044983;28;20053;-65
2023/06/05 00:05:10;;;;;;;4.93;2.47;;;;;;;;;;5045482;28;20057;-65
2023/06/05 00:07:37;;;;;;;4.60;2.70;;;;;;;;;;5046241;28;20839;-65
2023/06/05 00:10:05;;;;;;;4.18;2.72;;;;;;;;;;5045197;28;20057;-65
2023/06/05 00:12:31;;;;;;;3.47;2.55;;;;;;;;;;5038193;28;20045;-65
2023/06/05 00:14:57;;;;;;;3.13;2.60;;;;;;;;;;5044117;28;20060;-65
2023/06/05 00:17:24;;;;;;;6.90;3.38;;;;;;;;;;5043179;28;20131;-65
2023/06/05 00:19:51;;;;;;;4.70;2.97;;;;;;;;;;5045219;28;20053;-65
2023/06/05 00:22:17;;;;;;;6.40;2.95;;;;;;;;;;5045891;28;20166;-65
2023/06/05 00:24:43;;;;;;;6.00;2.67;;;;;;;;;;5040508;28;20101;-65
2023/06/05 00:27:10;;;;;;;4.35;2.95;;;;;;;;;;5045324;28;20092;-65
2023/06/05 00:29:36;;;;;;;5.45;3.22;;;;;;;;;;5048203;28;20065;-65
2023/06/05 00:32:03;;;;;;;3.63;2.70;;;;;;;;;;5046688;28;20128;-65
2023/06/05 00:34:29;;;;;;;4.18;2.55;;;;;;;;;;5051405;28;20057;-65
2023/06/05 00:36:57;;;;;;;4.85;2.63;;;;;;;;;;5047754;28;20128;-65
2023/06/05 00:39:24;;;;;;;4.95;3.15;;;;;;;;;;5049094;28;20144;-65
2023/06/05 00:41:50;;;;;;;3.55;2.75;;;;;;;;;;5045791;28;20115;-65
2023/06/05 00:44:17;;;;;;;4.70;2.75;;;;;;;;;;5043374;28;20163;-64
2023/06/05 00:46:44;;;;;;;7.82;3.38;;;;;;;;;;5044597;28;20057;-64
2023/06/05 00:49:11;;;;;;;7.85;3.78;;;;;;;;;;5044902;28;20522;-65
2023/06/05 00:51:38;;;;;;;3.25;2.85;;;;;;;;;;5043948;28;20057;-65
2023/06/05 00:54:05;;;;;;;4.63;3.45;;;;;;;;;;5043973;28;20060;-65
2023/06/05 00:56:32;;;;;;;3.35;2.88;;;;;;;;;;5043948;28;20466;-65
2023/06/05 00:58:59;;;;;;;7.15;3.88;;;;;;;;;;5043536;28;20064;-65
2023/06/05 01:01:28;;;;;;;6.40;3.17;;;;;;;;;;5043206;28;20140;-65
2023/06/05 01:03:58;;;;;;;6.15;3.58;;;;;;;;;;5045020;28;20172;-65
2023/06/05 01:06:26;;;;;;;8.73;3.63;;;;;;;;;;5042618;28;20088;-63
2023/06/05 01:08:53;;;;;;;6.70;3.67;;;;;;;;;;5027506;28;20168;-65
2023/06/05 01:11:23;;;;;;;7.10;3.83;;;;;;;;;;5043387;28;20057;-65
2023/06/05 01:13:56;;;;;;;6.75;3.50;;;;;;;;;;5045103;28;20058;-65
2023/06/05 01:16:30;;;;;;;6.90;3.40;;;;;;;;;;5043819;28;20054;-65
2023/06/05 01:19:02;;;;;;;6.13;3.80;;;;;;;;;;5044835;28;20046;-65
2023/06/05 01:21:30;;;;;;;8.48;4.57;;;;;;;;;;5043081;28;20133;-65
2023/06/05 01:23:56;;;;;;;5.03;3.20;;;;;;;;;;5044169;28;20530;-65
2023/06/05 01:26:27;;;;;;;5.60;3.60;;;;;;;;;;5043186;28;20865;-65
2023/06/05 01:28:54;;;;;;;6.05;3.22;;;;;;;;;;5024783;28;20062;-65
2023/06/05 01:31:21;;;;;;;4.95;3.15;;;;;;;;;;5041338;28;20486;-65
2023/06/05 01:33:57;;;;;;;4.57;3.15;;;;;;;;;;5042837;28;20057;-65
2023/06/05 01:36:24;;;;;;;6.30;3.47;;;;;;;;;;5042879;28;20667;-65
2023/06/05 01:38:52;;;;;;;6.35;3.38;;;;;;;;;;5043627;28;20041;-65
2023/06/05 01:41:19;;;;;;;6.53;3.50;;;;;;;;;;5025952;28;20060;-64
2023/06/05 01:43:47;;;;;;;6.07;3.50;;;;;;;;;;5042340;28;20088;-65
2023/06/05 01:46:18;;;;;;;10.50;4.07;;;;;;;;;;5042659;28;20065;-65
2023/06/05 01:48:45;;;;;;;4.40;3.25;;;;;;;;;;5043529;28;20065;-65
2023/06/05 01:51:11;;;;;;;4.50;3.45;;;;;;;;;;5042273;28;20064;-65
2023/06/05 01:53:38;;;;;;;4.30;3.17;;;;;;;;;;5042996;28;20164;-65
2023/06/05 01:56:06;;;;;;;7.35;4.10;;;;;;;;;;5042569;28;20137;-65
2023/06/05 01:58:33;;;;;;;7.35;3.72;;;;;;;;;;5039484;28;20103;-65
2023/06/05 02:00:59;;;;;;;4.32;3.28;;;;;;;;;;5043433;28;20069;-65
2023/06/05 02:03:26;;;;;;;5.53;3.80;;;;;;;;;;5043422;28;20800;-65
2023/06/05 02:05:54;;;;;;;5.53;4.03;;;;;;;;;;5043658;28;20140;-65
2023/06/05 02:08:22;;;;;;;5.32;3.90;;;;;;;;;;5042828;28;20526;-65
2023/06/05 02:10:49;;;;;;;6.32;3.90;;;;;;;;;;5042892;28;20049;-65
2023/06/05 02:13:16;;;;;;;8.65;4.18;;;;;;;;;;5043535;28;20052;-65
2023/06/05 02:15:44;;;;;;;4.95;3.47;;;;;;;;;;5042037;28;20058;-65
2023/06/05 02:18:12;;;;;;;5.25;3.58;;;;;;;;;;5043215;28;20514;-65
2023/06/05 02:20:40;;;;;;;5.03;3.58;;;;;;;;;;5042499;28;20093;-65
2023/06/05 02:23:07;;;;;;;5.55;3.30;;;;;;;;;;5025869;28;20080;-65
2023/06/05 02:25:33;;;;;;;6.22;3.35;;;;;;;;;;5043552;28;20541;-65
2023/06/05 02:27:59;;;;;;;6.57;4.03;;;;;;;;;;5040023;28;20111;-64
2023/06/05 02:30:26;;;;;;;8.82;3.75;;;;;;;;;;5043325;28;20141;-64
2023/06/05 02:33:00;;;;;;;8.38;3.53;;;;;;;;;;5043503;28;20148;-65
2023/06/05 02:35:29;;;;;;;9.18;4.05;;;;;;;;;;5042436;28;20074;-65
2023/06/05 02:37:56;;;;;;;7.07;4.38;;;;;;;;;;5042856;28;20530;-65
2023/06/05 02:40:23;;;;;;;8.55;4.07;;;;;;;;;;5042516;28;20140;-65
2023/06/05 02:42:50;;;;;;;6.18;3.85;;;;;;;;;;5044103;28;20538;-65
2023/06/05 02:45:16;;;;;;;5.70;3.38;;;;;;;;;;5042436;28;20045;-65
2023/06/05 02:47:42;;;;;;;5.43;3.30;;;;;;;;;;5040511;28;20845;-65
2023/06/05 02:50:09;;;;;;;5.93;4.32;;;;;;;;;;5043194;28;20089;-65
2023/06/05 02:52:35;;;;;;;8.35;3.92;;;;;;;;;;5042715;28;20419;-65
2023/06/05 02:55:03;;;;;;;8.18;4.25;;;;;;;;;;5042308;28;20081;-65
2023/06/05 02:57:29;;;;;;;6.55;3.97;;;;;;;;;;5042024;28;20054;-65
2023/06/05 02:59:56;;;;;;;4.47;3.63;;;;;;;;;;5024201;28;20053;-65
2023/06/05 03:02:23;;;;;;;6.63;4.25;;;;;;;;;;5042659;28;20081;-65
2023/06/05 03:04:53;;;;;;;5.38;4.10;;;;;;;;;;5042119;28;20141;-65
2023/06/05 03:07:22;;;;;;;7.15;4.53;;;;;;;;;;5044440;28;21252;-65
2023/06/05 03:09:49;;;;;;;5.50;4.15;;;;;;;;;;5046667;28;20060;-65
2023/06/05 03:12:15;;;;;;;6.70;3.78;;;;;;;;;;5045519;28;20054;-65
2023/06/05 03:14:41;;;;;;;6.78;3.85;;;;;;;;;;5040133;28;20085;-65
2023/06/05 03:17:08;;;;;;;5.85;3.47;;;;;;;;;;5054580;28;20056;-65
2023/06/05 03:19:34;;;;;;;8.43;4.40;;;;;;;;;;5045165;28;20058;-65
2023/06/05 03:22:00;;;;;;;6.70;4.00;;;;;;;;;;5046434;28;20053;-65
2023/06/05 03:24:27;;;;;;;6.47;3.85;;;;;;;;;;5045508;28;20046;-65
2023/06/05 03:26:54;;;;;;;6.07;4.60;;;;;;;;;;5045097;28;20077;-65
2023/06/05 03:29:20;;;;;;;8.05;3.95;;;;;;;;;;5042272;28;20060;-65
2023/06/05 03:31:47;;;;;;;6.25;3.60;;;;;;;;;;5044947;28;20111;-65
2023/06/05 03:34:13;;;;;;;10.10;4.57;;;;;;;;;;5046452;28;20108;-65
2023/06/05 03:36:39;;;;;;;8.15;4.00;;;;;;;;;;5046634;28;20085;-65
2023/06/05 03:39:06;;;;;;;7.45;4.15;;;;;;;;;;5047945;28;20089;-65
2023/06/05 03:41:33;;;;;;;6.80;4.18;;;;;;;;;;5044197;28;20058;-65
2023/06/05 03:43:59;;;;;;;6.55;4.38;;;;;;;;;;5044649;28;20052;-65
2023/06/05 03:46:29;;;;;;;9.95;4.75;;;;;;;;;;5043969;28;21125;-65
2023/06/05 03:48:59;;;;;;;7.28;3.88;;;;;;;;;;5044879;28;20057;-65
2023/06/05 03:51:30;;;;;;;10.13;4.32;;;;;;;;;;5044781;28;20057;-65
2023/06/05 03:53:58;;;;;;;8.45;4.20;;;;;;;;;;5043765;28;20050;-65
2023/06/05 03:56:28;;;;;;;9.98;4.70;;;;;;;;;;5044484;28;20131;-65
2023/06/05 03:58:58;;;;;;;8.05;4.53;;;;;;;;;;5046790;28;20053;-65
2023/06/05 04:01:24;;;;;;;8.60;4.32;;;;;;;;;;5043074;28;20049;-65
2023/06/05 04:03:50;;;;;;;8.95;4.63;;;;;;;;;;5034479;28;20137;-65
2023/06/05 04:06:17;;;;;;;6.45;4.18;;;;;;;;;;5037052;28;20143;-65
2023/06/05 04:08:43;;;;;;;5.78;4.20;;;;;;;;;;5045037;28;20060;-65
2023/06/05 04:11:10;;;;;;;7.30;5.10;;;;;;;;;;5044252;28;20099;-65
2023/06/05 04:13:37;;;;;;;5.55;4.20;;;;;;;;;;5045559;28;20186;-65
2023/06/05 04:16:03;;;;;;;9.85;4.47;;;;;;;;;;5044122;28;20050;-65
2023/06/05 04:18:30;;;;;;;5.97;4.10;;;;;;;;;;5043517;28;20049;-65
2023/06/05 04:20:56;;;;;;;6.38;4.30;;;;;;;;;;5032810;28;20077;-63
2023/06/05 04:23:23;;;;;;;8.70;5.05;;;;;;;;;;5027694;28;20069;-65
2023/06/05 04:25:53;;;;;;;7.20;4.30;;;;;;;;;;5046433;28;20542;-65
2023/06/05 04:28:19;;;;;;;12.65;4.72;;;;;;;;;;5056039;28;20060;-64
2023/06/05 04:30:46;;;;;;;9.55;4.78;;;;;;;;;;5043487;28;20050;-65
2023/06/05 04:33:12;;;;;;;7.78;4.65;;;;;;;;;;5044935;28;20490;-65
2023/06/05 04:35:39;;;;;;;6.00;4.70;;;;;;;;;;5045587;28;20055;-65
2023/06/05 04:38:05;;;;;;;8.15;4.13;;;;;;;;;;5042584;28;20153;-65
2023/06/05 04:40:33;;;;;;;8.88;4.43;;;;;;;;;;5043307;28;20535;-65
2023/06/05 04:42:59;;;;;;;8.60;4.95;;;;;;;;;;5043721;28;20056;-65
2023/06/05 04:45:26;;;;;;;6.80;4.10;;;;;;;;;;5056944;28;21066;-65
2023/06/05 04:47:52;;;;;;;9.88;4.68;;;;;;;;;;5044562;28;20120;-65
2023/06/05 04:50:26;;;;;;;5.70;4.07;;;;;;;;;;5043664;28;20536;-65
2023/06/05 04:52:53;;;;;;;5.65;4.40;;;;;;;;;;5043224;28;20131;-65
2023/06/05 04:55:20;;;;;;;6.60;3.95;;;;;;;;;;5040556;28;20217;-65
2023/06/05 04:57:48;;;;;;;5.28;4.13;;;;;;;;;;5042939;28;20053;-65
2023/06/05 05:00:15;;;;;;;7.35;4.28;;;;;;;;;;5040762;28;20522;-65
2023/06/05 05:02:41;;;;;;;11.55;5.18;;;;;;;;;;5037749;28;20053;-65
2023/06/05 05:05:08;;;;;;;7.40;4.65;;;;;;;;;;5037923;28;20799;-65
2023/06/05 05:07:35;;;;;;;10.05;4.40;;;;;;;;;;5043825;28;20061;-66
2023/06/05 05:10:02;;;;;;;8.68;4.18;;;;;;;;;;5033295;28;20053;-65
2023/06/05 05:12:29;;;;;;;6.28;4.55;;;;;;;;;;5041572;28;20593;-66
2023/06/05 05:14:55;;;;;;;5.00;3.67;;;;;;;;;;5039912;28;20073;-66
2023/06/05 05:17:22;;;;;;;9.10;4.53;;;;;;;;;;5042179;28;20111;-65
2023/06/05 05:19:48;;;;;;;10.20;4.70;;;;;;;;;;5041176;28;21133;-65
2023/06/05 05:22:15;;;;;;;10.07;4.57;;;;;;;;;;5043290;28;20164;-66
2023/06/05 05:24:41;;;;;;;6.85;4.50;;;;;;;;;;5044240;28;20079;-66
2023/06/05 05:27:08;;;;;;;8.05;4.75;;;;;;;;;;5043889;28;20443;-65
2023/06/05 05:29:34;;;;;;;8.60;4.80;;;;;;;;;;5032524;28;20061;-65
2023/06/05 05:32:01;;;;;;;7.68;4.80;;;;;;;;;;5039398;28;20511;-66
2023/06/05 05:34:27;;;;;;;4.80;3.58;;;;;;;;;;5039418;28;20057;-66
2023/06/05 05:36:53;;;;;;;7.65;4.82;;;;;;;;;;5040453;28;20057;-67
2023/06/05 05:39:20;;;;;;;5.85;4.40;;;;;;;;;;5028446;28;20054;-66
2023/06/05 05:41:47;;;;;;;9.90;5.85;;;;;;;;;;5025361;28;20946;-66
2023/06/05 05:44:13;;;;;;;6.63;5.28;;;;;;;;;;5040513;28;20586;-66
2023/06/05 05:46:39;;;;;;;10.02;5.25;;;;;;;;;;5043607;28;20057;-66
2023/06/05 05:49:06;;;;;;;7.78;5.20;;;;;;;;;;5043253;28;20050;-65
2023/06/05 05:51:33;;;;;;;11.23;5.03;;;;;;;;;;5043260;28;20088;-65
2023/06/05 05:54:00;;;;;;;7.07;4.93;;;;;;;;;;5044245;28;20053;-66
2023/06/05 05:56:27;;;;;;;10.32;5.38;;;;;;;;;;5041113;28;20049;-66
2023/06/05 05:58:53;;;;;;;7.63;5.03;;;;;;;;;;5043638;28;20045;-65
2023/06/05 06:01:21;;;;;;;8.80;4.85;;;;;;;;;;5042052;28;20053;-66
2023/06/05 06:03:48;;;;;;;10.57;5.47;;;;;;;;;;5041528;28;20049;-66
2023/06/05 06:06:16;;;;;;;7.97;5.00;;;;;;;;;;5042376;28;20081;-65
2023/06/05 06:08:42;;;;;;;7.47;5.07;;;;;;;;;;5042708;28;20056;-65
2023/06/05 06:11:09;;;;;;;8.80;4.85;;;;;;;;;;5041440;28;20057;-65
2023/06/05 06:13:36;;;;;;;6.88;4.80;;;;;;;;;;5034640;28;20053;-64
2023/06/05 06:16:02;;;;;;;9.23;5.72;;;;;;;;;;5040244;28;20077;-65
2023/06/05 06:18:29;;;;;;;13.30;5.70;;;;;;;;;;5044373;28;20068;-65
2023/06/05 06:20:55;;;;;;;9.15;5.45;;;;;;;;;;5044632;28;20057;-65
2023/06/05 06:23:22;;;;;;;8.77;5.38;;;;;;;;;;5044894;28;20055;-65
2023/06/05 06:25:50;;;;;;;9.30;5.22;;;;;;;;;;5044786;28;20568;-66
2023/06/05 06:28:16;;;;;;;9.70;5.47;;;;;;;;;;5044085;28;20112;-66
2023/06/05 06:30:43;;;;;;;8.50;5.35;;;;;;;;;;5042414;28;20061;-66
2023/06/05 06:33:09;;;;;;;10.07;5.45;;;;;;;;;;5045403;28;20060;-65
2023/06/05 06:35:36;;;;;;;7.78;6.00;;;;;;;;;;5048320;28;20079;-64
2023/06/05 06:38:03;;;;;;;6.97;4.38;;;;;;;;;;5048845;28;20059;-65
2023/06/05 06:40:29;;;;;;;7.63;4.38;;;;;;;;;;5041709;28;20064;-65
2023/06/05 06:42:56;;;;;;;7.90;5.03;;;;;;;;;;5044114;28;20073;-66
2023/06/05 06:45:22;;;;;;;7.45;4.15;;;;;;;;;;5044135;28;20053;-65
2023/06/05 06:47:48;;;;;;;9.02;5.50;;;;;;;;;;5042962;28;20102;-65
2023/06/05 06:50:32;;;;;;;10.68;5.35;;;;;;;;;;5042985;28;20459;-65
2023/06/05 06:52:58;;;;;;;6.80;4.55;;;;;;;;;;5043879;28;21072;-65
2023/06/05 06:55:25;;;;;;;7.43;4.80;;;;;;;;;;5042549;28;20050;-65
2023/06/05 06:57:51;;;;;;;7.28;4.32;;;;;;;;;;5040272;28;20057;-64
2023/06/05 07:00:20;;;;;;;11.10;4.70;;;;;;;;;;5041653;28;20045;-65
2023/06/05 07:02:46;;;;;;;7.15;4.85;;;;;;;;;;5042329;28;20049;-66
2023/06/05 07:05:14;;;;;;;5.50;4.65;;;;;;;;;;5043439;28;20050;-66
2023/06/05 07:07:40;;;;;;;8.65;4.75;;;;;;;;;;5047158;28;20049;-66
2023/06/05 07:10:07;;;;;;;7.80;5.22;;;;;;;;;;5042728;28;20085;-66
2023/06/05 07:12:34;;;;;;;6.43;3.75;;;;;;;;;;5038462;28;20526;-66
2023/06/05 07:15:00;;;;;;;8.73;5.03;;;;;;;;;;5042988;28;20096;-65
2023/06/05 07:17:29;;;;;;;6.63;4.45;;;;;;;;;;5042436;28;20053;-66
2023/06/05 07:19:56;;;;;;;6.85;4.85;;;;;;;;;;5041845;28;20561;-66
2023/06/05 07:22:24;;;;;;;6.88;4.30;;;;;;;;;;5042819;28;20058;-67
2023/06/05 07:24:50;;;;;;;6.85;4.05;;;;;;;;;;5043867;28;20100;-67
2023/06/05 07:27:17;;;;;;;10.05;4.85;;;;;;;;;;5024026;28;20050;-67
2023/06/05 07:29:44;;;;;;;9.50;4.38;;;;;;;;;;5037697;28;20066;-67
2023/06/05 07:32:14;;;;;;;9.05;5.03;;;;;;;;;;5032013;28;20576;-67
2023/06/05 07:34:40;;;;;;;9.55;5.25;;;;;;;;;;5049615;28;20057;-67
2023/06/05 07:37:07;;;;;;;8.18;4.93;;;;;;;;;;5042966;28;20065;-67
2023/06/05 07:39:34;;;;;;;6.18;4.65;;;;;;;;;;5042832;28;20058;-67
2023/06/05 07:42:00;;;;;;;6.53;5.03;;;;;;;;;;5042760;28;20080;-65
2023/06/05 07:44:26;;;;;;;7.38;4.32;;;;;;;;;;5040895;28;20054;-65
2023/06/05 07:46:53;;;;;;;6.07;4.07;;;;;;;;;;5042237;28;20057;-65
2023/06/05 07:49:19;;;;;;;5.20;4.70;;;;;;;;;;5042371;28;20068;-65
2023/06/05 07:51:48;;;;;;;8.25;4.30;;;;;;;;;;5043537;28;20103;-65
2023/06/05 07:54:19;;;;;;;8.43;4.68;;;;;;;;;;5034952;28;20049;-64
2023/06/05 07:56:48;;;;;;;4.65;4.15;;;;;;;;;;5028734;28;20049;-66
2023/06/05 07:59:16;;;;;;;7.93;4.65;;;;;;;;;;5065673;28;20438;-66
2023/06/05 08:01:43;;;;;;;7.38;4.28;;;;;;;;;;5065987;28;20134;-65
2023/06/05 08:04:12;;;;;;;7.10;4.72;;;;;;;;;;5058100;28;20053;-65
2023/06/05 08:06:40;;;;;;;9.68;5.57;;;;;;;;;;5046449;28;20778;-65
2023/06/05 08:09:09;;;;;;;5.57;4.40;;;;;;;;;;5045994;28;20106;-67
2023/06/05 08:11:37;;;;;;;6.38;4.63;;;;;;;;;;5045795;28;20183;-67
2023/06/05 08:14:05;;;;;;;7.18;4.72;;;;;;;;;;5045696;28;20050;-65
2023/06/05 08:16:32;;;;;;;6.63;4.88;;;;;;;;;;5046180;28;20053;-64
2023/06/05 08:18:59;;;;;;;6.68;4.68;;;;;;;;;;5045303;28;20084;-64
2023/06/05 08:21:26;;;;;;;5.93;4.60;;;;;;;;;;5045252;28;20088;-63
2023/06/05 08:23:52;;;;;;;6.80;4.90;;;;;;;;;;5044207;28;20058;-66
2023/06/05 08:26:21;;;;;;;7.45;4.80;;;;;;;;;;5053507;28;20049;-66
2023/06/05 08:28:48;;;;;;;7.00;5.00;;;;;;;;;;5050233;28;20625;-66
2023/06/05 08:31:15;;;;;;;5.63;4.07;;;;;;;;;;5061410;28;20506;-66
2023/06/05 08:33:42;;;;;;;7.55;4.93;;;;;;;;;;5052145;28;20091;-65
2023/06/05 08:36:08;;;;;;;6.55;4.20;;;;;;;;;;5044796;28;20131;-65
2023/06/05 08:38:38;;;;;;;7.43;4.15;;;;;;;;;;5046043;28;20136;-66
2023/06/05 08:41:07;;;;;;;5.03;4.05;;;;;;;;;;5043731;28;20084;-66
2023/06/05 08:43:38;;;;;;;9.88;4.97;;;;;;;;;;5057959;28;20056;-66
2023/06/05 08:46:05;;;;;;;10.40;5.22;;;;;;;;;;5041147;28;20843;-66
2023/06/05 08:48:34;;;;;;;10.00;4.95;;;;;;;;;;5055419;28;20119;-66
2023/06/05 08:51:00;;;;;;;7.95;5.53;;;;;;;;;;5063057;28;20092;-65
2023/06/05 08:53:29;;;;;;;7.55;4.82;;;;;;;;;;5049991;28;20139;-66
2023/06/05 08:55:56;;;;;;;6.60;4.07;;;;;;;;;;5042708;28;21305;-65
2023/06/05 08:58:22;;;;;;;7.35;4.50;;;;;;;;;;5026916;28;20057;-65
2023/06/05 09:00:49;;;;;;;8.13;4.72;;;;;;;;;;5045279;28;20063;-66
2023/06/05 09:03:18;;;;;;;12.40;3.88;;;;;;;;;;5043824;28;20057;-66
2023/06/05 09:05:44;;;;;;;5.13;3.63;;;;;;;;;;5043903;28;20056;-66
2023/06/05 09:08:11;;;;;;;5.88;4.15;;;;;;;;;;5052852;28;20053;-66
2023/06/05 09:10:38;;;;;;;12.07;3.97;;;;;;;;;;5045674;28;20837;-67
2023/06/05 09:13:04;;;;;;;12.93;3.92;;;;;;;;;;5044634;28;20065;-67
2023/06/05 09:15:32;;;;;;;4.65;3.33;;;;;;;;;;5043848;28;20104;-66
2023/06/05 09:18:08;;;;;;;5.53;2.80;;;;;;;;;;5044995;28;20056;-66
2023/06/05 09:20:35;;;;;;;7.82;4.22;;;;;;;;;;5044971;28;20137;-66
2023/06/05 09:23:02;;;;;;;6.13;3.78;;;;;;;;;;5044801;28;20499;-66
2023/06/05 09:25:44;;;;;;;4.82;3.30;;;;;;;;;;5044312;28;20499;-66
2023/06/05 09:28:11;;;;;;;3.88;2.97;;;;;;;;;;5044293;28;20096;-67
2023/06/05 09:30:53;;;;;;;7.95;3.63;;;;;;;;;;5044974;28;20057;-67
2023/06/05 09:33:19;;;;;;;6.35;2.88;;;;;;;;;;5044390;28;20057;-66
2023/06/05 09:35:45;;;;;;;4.72;3.42;;;;;;;;;;5044461;28;20136;-66
2023/06/05 09:38:25;;;;;;;4.72;3.95;;;;;;;;;;5044987;28;20120;-64
2023/06/05 09:40:52;;;;;;;6.80;3.85;;;;;;;;;;5044498;28;20058;-64
2023/06/05 09:43:22;;;;;;;3.50;2.97;;;;;;;;;;5044031;28;20057;-65
2023/06/05 09:45:49;;;;;;;4.97;3.35;;;;;;;;;;5044479;28;20084;-65
2023/06/05 09:48:15;;;;;;;5.13;3.30;;;;;;;;;;5043951;28;20045;-65
2023/06/05 09:50:42;;;;;;;3.60;2.85;;;;;;;;;;5043721;28;20524;-65
2023/06/05 09:53:09;;;;;;;2.90;2.60;;;;;;;;;;5044597;28;20053;-65
2023/06/05 09:55:35;;;;;;;3.53;2.85;;;;;;;;;;5042085;28;20057;-65
2023/06/05 09:58:10;;;;;;;5.38;2.80;;;;;;;;;;5043473;28;20086;-65
2023/06/05 10:00:38;;;;;;;2.93;2.43;;;;;;;;;;5043185;28;20056;-65
2023/06/05 10:03:07;;;;;;;4.15;2.72;;;;;;;;;;5043652;28;20634;-65
2023/06/05 10:05:36;;;;;;;2.85;2.50;;;;;;;;;;5043322;28;20145;-66
2023/06/05 10:08:02;;;;;;;11.05;3.25;;;;;;;;;;5038004;28;20084;-64
2023/06/05 10:10:29;;;;;;;2.83;2.53;;;;;;;;;;5039851;28;20080;-67
2023/06/05 10:12:56;;;;;;;3.85;2.05;;;;;;;;;;5038557;28;20145;-66
2023/06/05 10:15:24;;;;;;;4.38;2.90;;;;;;;;;;5040932;28;20049;-67
2023/06/05 10:17:50;;;;;;;2.85;2.40;;;;;;;;;;5041531;28;20832;-67
2023/06/05 10:20:17;;;;;;;9.57;2.67;;;;;;;;;;5039235;28;20061;-65
2023/06/05 10:22:45;;;;;;;4.25;3.17;;;;;;;;;;5042164;28;20053;-67
2023/06/05 10:25:13;;;;;;;3.78;2.88;;;;;;;;;;5042105;28;20503;-65
2023/06/05 10:27:45;;;;;;;2.60;2.40;;;;;;;;;;5042029;28;20108;-65
2023/06/05 10:30:18;;;;;;;2.50;2.20;;;;;;;;;;5041519;28;20092;-66
2023/06/05 10:33:01;;;;;;;3.33;2.40;;;;;;;;;;5043769;28;20548;-66
2023/06/05 10:35:43;;;;;;;3.75;2.60;;;;;;;;;;5042735;28;20057;-68
2023/06/05 10:38:18;;;;;;;6.85;2.60;;;;;;;;;;5043810;28;20558;-67
2023/06/05 10:40:45;;;;;;;3.22;2.00;;;;;;;;;;5025020;28;20053;-68
2023/06/05 10:43:24;;;;;;;6.97;2.53;;;;;;;;;;5043523;28;20100;-67
2023/06/05 10:45:52;;;;;;;2.60;2.22;;;;;;;;;;5043742;28;20515;-67
2023/06/05 10:48:52;;;;;;;4.35;2.28;;;;;;;;;;5042281;28;20060;-68
2023/06/05 10:51:31;;;;;;;3.88;2.38;;;;;;;;;;5039037;28;20061;-67
2023/06/05 10:53:57;;;;;;;5.03;2.42;;;;;;;;;;5029894;28;20063;-67
2023/06/05 10:56:57;;;;;;;2.75;2.55;;;;;;;;;;5043425;28;20460;-67
2023/06/05 10:59:26;;;;;;;2.72;2.20;;;;;;;;;;5017390;28;20059;-66
2023/06/05 11:02:05;;;;;;;3.05;2.25;;;;;;;;;;5041800;28;20084;-66
2023/06/05 11:04:58;;;;;;;4.03;2.38;;;;;;;;;;5043233;28;20054;-66
2023/06/05 11:07:28;;;;;;;4.53;2.38;;;;;;;;;;5038568;28;20533;-66
2023/06/05 11:10:23;;;;;;;4.05;2.75;;;;;;;;;;5038913;28;20133;-66
2023/06/05 11:12:53;;;;;;;2.70;2.20;;;;;;;;;;5043498;28;20054;-66
2023/06/05 11:15:22;;;;;;;2.78;2.53;;;;;;;;;;5042204;28;20465;-66
2023/06/05 11:17:50;;;;;;;6.20;2.90;;;;;;;;;;5043143;28;20054;-67
2023/06/05 11:20:22;;;;;;;9.02;3.10;;;;;;;;;;5037956;28;20061;-67
2023/06/05 11:22:52;;;;;;;3.50;2.78;;;;;;;;;;5036905;28;20140;-66
2023/06/05 11:25:20;;;;;;;3.10;2.80;;;;;;;;;;5032662;28;20050;-66
2023/06/05 11:27:48;;;;;;;3.47;2.70;;;;;;;;;;5039877;28;20053;-66
2023/06/05 11:30:15;;;;;;;3.45;2.67;;;;;;;;;;5046414;28;20119;-66
2023/06/05 11:32:52;;;;;;;10.65;3.00;;;;;;;;;;5044371;28;20067;-66
2023/06/05 11:35:22;;;;;;;2.30;2.00;;;;;;;;;;5042672;28;20053;-66
2023/06/05 11:37:48;;;;;;;7.32;2.90;;;;;;;;;;5043391;28;20060;-65
2023/06/05 11:40:29;;;;;;;3.65;2.83;;;;;;;;;;5046480;28;20057;-66
2023/06/05 11:43:01;;;;;;;3.50;2.72;;;;;;;;;;5046144;28;20049;-66
2023/06/05 11:45:27;;;;;;;3.13;2.58;;;;;;;;;;5063958;28;20085;-65
2023/06/05 11:48:03;;;;;;;4.72;3.15;;;;;;;;;;5060921;28;20071;-65
2023/06/05 11:50:30;;;;;;;3.78;2.67;;;;;;;;;;5049130;28;20057;-65
2023/06/05 11:53:07;;;;;;;3.97;2.47;;;;;;;;;;5042849;28;20148;-67
2023/06/05 11:58:21;;;;;;;3.70;2.50;;;;;;;;;;5044542;28;20057;-66
2023/06/05 12:00:47;;;;;;;4.93;2.50;;;;;;;;;;5043777;28;20100;-65
2023/06/05 12:03:20;;;;;;;3.58;2.42;;;;;;;;;;5052072;28;20064;-67
2023/06/05 12:05:48;;;;;;;2.67;2.42;;;;;;;;;;5042662;28;20057;-67
2023/06/05 12:08:29;;;;;;;4.75;2.85;;;;;;;;;;5045467;28;20069;-66
2023/06/05 12:10:56;;;;;;;3.75;2.92;;;;;;;;;;5045178;28;20053;-67
2023/06/05 12:13:22;;;;;;;2.80;2.10;;;;;;;;;;5045388;28;20112;-66
2023/06/05 12:15:58;;;;;;;10.60;2.72;;;;;;;;;;5045106;28;20056;-66
2023/06/05 12:18:30;;;;;;;4.28;2.95;;;;;;;;;;5043650;28;20053;-66
2023/06/05 12:20:57;;;;;;;2.75;2.40;;;;;;;;;;5045150;28;20053;-67
2023/06/05 12:23:24;;;;;;;3.50;2.58;;;;;;;;;;5044917;28;20061;-67
2023/06/05 12:26:01;;;;;;;4.93;3.28;;;;;;;;;;5043118;28;20256;-66
2023/06/05 12:28:28;;;;;;;3.00;2.60;;;;;;;;;;5025160;28;20096;-66
2023/06/05 12:30:54;;;;;;;4.95;2.53;;;;;;;;;;5043203;28;20054;-66
2023/06/05 12:33:21;;;;;;;5.63;3.25;;;;;;;;;;5043417;28;20049;-66
2023/06/05 12:35:48;;;;;;;8.57;3.30;;;;;;;;;;5045445;28;20049;-65
2023/06/05 12:38:14;;;;;;;5.20;3.38;;;;;;;;;;5038352;28;20446;-67
2023/06/05 12:40:40;;;;;;;3.60;3.03;;;;;;;;;;5045375;28;20572;-66
2023/06/05 12:43:18;;;;;;;3.95;2.78;;;;;;;;;;5044566;28;20064;-66
2023/06/05 12:45:45;;;;;;;4.35;2.78;;;;;;;;;;5045694;28;20057;-67
2023/06/05 12:48:12;;;;;;;3.60;2.90;;;;;;;;;;5043096;28;20064;-66
2023/06/05 12:50:41;;;;;;;5.07;2.95;;;;;;;;;;5044853;28;20057;-66
2023/06/05 12:53:08;;;;;;;4.43;3.00;;;;;;;;;;5045217;28;20514;-66
2023/06/05 12:55:34;;;;;;;4.40;3.10;;;;;;;;;;5045137;28;20054;-66
2023/06/05 12:58:00;;;;;;;4.10;2.65;;;;;;;;;;5044755;28;20554;-66
2023/06/05 13:00:27;;;;;;;4.22;2.80;;;;;;;;;;5037309;28;20108;-66
2023/06/05 13:02:55;;;;;;;2.97;2.55;;;;;;;;;;5039126;28;20053;-66
2023/06/05 13:05:22;;;;;;;8.10;3.38;;;;;;;;;;5045025;28;20080;-67
2023/06/05 13:07:51;;;;;;;3.10;2.58;;;;;;;;;;5045181;28;20057;-67
2023/06/05 13:10:17;;;;;;;4.03;3.15;;;;;;;;;;5043458;28;20111;-67
2023/06/05 13:12:43;;;;;;;4.22;3.00;;;;;;;;;;5046246;28;20107;-66
2023/06/05 13:15:10;;;;;;;3.85;2.40;;;;;;;;;;5036534;28;20164;-65
2023/06/05 13:17:37;;;;;;;5.45;3.17;;;;;;;;;;5042549;28;20053;-66
2023/06/05 13:20:14;;;;;;;4.18;2.58;;;;;;;;;;5044574;28;20360;-65
2023/06/05 13:22:40;;;;;;;4.63;2.78;;;;;;;;;;5045143;28;20060;-66
2023/06/05 13:25:08;;;;;;;5.18;2.92;;;;;;;;;;5044905;28;20053;-66
2023/06/05 13:27:35;;;;;;;3.17;2.83;;;;;;;;;;5044894;28;20145;-66
2023/06/05 13:30:03;;;;;;;5.85;2.50;;;;;;;;;;5044332;28;20451;-65
2023/06/05 13:32:33;;;;;;;4.30;3.03;;;;;;;;;;5043681;28;20083;-66
2023/06/05 13:35:00;;;;;;;4.97;2.97;;;;;;;;;;5043384;28;20056;-66
2023/06/05 13:37:26;;;;;;;2.88;2.25;;;;;;;;;;5043222;28;20053;-66
2023/06/05 13:39:53;;;;;;;3.75;2.70;;;;;;;;;;5044387;28;20092;-66
2023/06/05 13:42:19;;;;;;;3.63;2.95;;;;;;;;;;5044384;28;20168;-66
2023/06/05 13:44:45;;;;;;;4.93;2.70;;;;;;;;;;5026960;28;20096;-66
2023/06/05 13:47:12;;;;;;;6.95;4.10;;;;;;;;;;5042537;28;20052;-66
2023/06/05 13:49:39;;;;;;;10.75;5.32;;;;;;;;;;5043438;28;20060;-66
2023/06/05 13:52:06;;;;;;;7.47;3.55;;;;;;;;;;5044478;28;20583;-66
2023/06/05 13:54:32;;;;;;;7.65;3.80;;;;;;;;;;5026248;28;20467;-66
2023/06/05 13:56:59;;;;;;;2.95;2.63;;;;;;;;;;5044503;28;20054;-66
2023/06/05 13:59:26;;;;;;;4.15;2.58;;;;;;;;;;5042612;28;20560;-66
2023/06/05 14:01:52;;;;;;;4.25;2.78;;;;;;;;;;5044100;28;20057;-66
2023/06/05 14:04:20;;;;;;;4.20;2.85;;;;;;;;;;5043936;28;20503;-66
2023/06/05 14:06:47;;;;;;;4.00;2.90;;;;;;;;;;5044352;28;20067;-66
2023/06/05 14:09:13;;;;;;;4.03;3.22;;;;;;;;;;5043742;28;20488;-66
2023/06/05 14:11:44;;;;;;;5.25;2.70;;;;;;;;;;5043334;28;20168;-67
2023/06/05 14:14:10;;;;;;;3.80;2.55;;;;;;;;;;5043857;28;20061;-66
2023/06/05 14:16:37;;;;;;;4.90;2.95;;;;;;;;;;5043065;28;20140;-66
2023/06/05 14:19:04;;;;;;;4.43;3.03;;;;;;;;;;5043640;28;20507;-66
2023/06/05 14:21:30;;;;;;;3.35;2.80;;;;;;;;;;5043182;28;20198;-67
2023/06/05 14:23:57;;;;;;;4.63;2.75;;;;;;;;;;5043821;28;20143;-66
2023/06/05 14:26:23;;;;;;;4.75;2.53;;;;;;;;;;5042169;28;20585;-67
2023/06/05 14:28:50;;;;;;;36.28;21.63;;;;;;;;;;5043589;28;20061;-66
2023/06/05 14:31:16;;;;;;;89.70;53.08;;;;;;;;;;5043041;28;20094;-67
2023/06/05 14:33:42;;;;;;;36.92;22.75;;;;;;;;;;5043201;28;20083;-67
2023/06/05 14:36:09;;;;;;;21.85;18.90;;;;;;;;;;5032314;28;20973;-67
2023/06/05 14:38:36;;;;;;;6.35;5.18;;;;;;;;;;5044453;28;20085;-66
2023/06/05 14:41:02;;;;;;;5.75;3.03;;;;;;;;;;5042261;28;20060;-66
2023/06/05 14:43:28;;;;;;;2.85;2.53;;;;;;;;;;5044010;28;20049;-67
2023/06/05 14:45:56;;;;;;;4.70;2.97;;;;;;;;;;5040877;28;21949;-67
2023/06/05 14:48:23;;;;;;;5.28;3.63;;;;;;;;;;5040526;28;20053;-67